Aviation Digital Data Service (ADDS)

Output produced by METARs form (0710 UTC 23 February 2017)
found at http://aviationweather.gov/adds/metars/
 
KJAX 230541Z 2306/2406 06007KT P6SM VCSH SCT008 BKN015 OVC030 
     FM231200 05011G20KT P6SM VCSH SCT010 BKN020 OVC030 
     FM231500 06016G26KT P6SM VCSH SCT020 BKN030 OVC150 
     FM231800 05014G25KT P6SM SCT020 BKN040 
     FM240000 04008KT P6SM SCT020 BKN040